sensor_id;sensor_type;location;lat;lon;timestamp;P1;durP1;ratioP1;P2;durP2;ratioP2
31514;SDS011;40526;52.088;17.020;2024-03-07T00:04:49;25.95;;;14.07;;
31514;SDS011;40526;52.088;17.020;2024-03-07T00:09:53;27.80;;;15.05;;
31514;SDS011;40526;52.088;17.020;2024-03-07T00:14:56;23.17;;;14.23;;
31514;SDS011;40526;52.088;17.020;2024-03-07T00:19:58;31.25;;;14.90;;
31514;SDS011;40526;52.088;17.020;2024-03-07T00:25:02;25.92;;;12.98;;
31514;SDS011;40526;52.088;17.020;2024-03-07T00:30:06;28.27;;;15.35;;
31514;SDS011;40526;52.088;17.020;2024-03-07T00:35:09;33.05;;;14.95;;
31514;SDS011;40526;52.088;17.020;2024-03-07T00:40:15;25.13;;;14.18;;
31514;SDS011;40526;52.088;17.020;2024-03-07T00:45:17;28.90;;;15.98;;
31514;SDS011;40526;52.088;17.020;2024-03-07T00:50:19;39.05;;;16.73;;
31514;SDS011;40526;52.088;17.020;2024-03-07T00:55:24;28.17;;;13.60;;
31514;SDS011;40526;52.088;17.020;2024-03-07T01:00:27;26.58;;;12.85;;
31514;SDS011;40526;52.088;17.020;2024-03-07T01:05:29;32.33;;;15.65;;
31514;SDS011;40526;52.088;17.020;2024-03-07T01:10:33;25.02;;;13.20;;
31514;SDS011;40526;52.088;17.020;2024-03-07T01:15:36;24.90;;;13.98;;
31514;SDS011;40526;52.088;17.020;2024-03-07T01:20:38;22.33;;;13.43;;
31514;SDS011;40526;52.088;17.020;2024-03-07T01:25:42;24.98;;;13.20;;
31514;SDS011;40526;52.088;17.020;2024-03-07T01:30:44;29.83;;;14.85;;
31514;SDS011;40526;52.088;17.020;2024-03-07T01:35:46;35.15;;;13.95;;
31514;SDS011;40526;52.088;17.020;2024-03-07T01:40:51;26.60;;;13.93;;
31514;SDS011;40526;52.088;17.020;2024-03-07T01:45:53;24.55;;;13.07;;
31514;SDS011;40526;52.088;17.020;2024-03-07T01:50:59;23.15;;;13.70;;
31514;SDS011;40526;52.088;17.020;2024-03-07T01:56:05;24.13;;;13.05;;
31514;SDS011;40526;52.088;17.020;2024-03-07T02:01:08;29.98;;;15.68;;
31514;SDS011;40526;52.088;17.020;2024-03-07T02:06:11;27.83;;;14.55;;
31514;SDS011;40526;52.088;17.020;2024-03-07T02:11:16;28.50;;;14.88;;
31514;SDS011;40526;52.088;17.020;2024-03-07T02:16:18;26.95;;;15.18;;
31514;SDS011;40526;52.088;17.020;2024-03-07T02:21:22;22.80;;;13.75;;
31514;SDS011;40526;52.088;17.020;2024-03-07T02:26:25;28.13;;;15.32;;
31514;SDS011;40526;52.088;17.020;2024-03-07T02:31:29;29.60;;;16.25;;
31514;SDS011;40526;52.088;17.020;2024-03-07T02:36:38;33.33;;;16.63;;
31514;SDS011;40526;52.088;17.020;2024-03-07T02:41:40;30.70;;;15.88;;
31514;SDS011;40526;52.088;17.020;2024-03-07T02:46:42;27.85;;;16.27;;
31514;SDS011;40526;52.088;17.020;2024-03-07T02:51:46;32.03;;;16.02;;
31514;SDS011;40526;52.088;17.020;2024-03-07T02:56:49;27.00;;;15.20;;
31514;SDS011;40526;52.088;17.020;2024-03-07T03:01:51;32.83;;;16.23;;
31514;SDS011;40526;52.088;17.020;2024-03-07T03:06:55;25.42;;;14.85;;
31514;SDS011;40526;52.088;17.020;2024-03-07T03:11:57;30.17;;;15.38;;
31514;SDS011;40526;52.088;17.020;2024-03-07T03:17:00;27.48;;;15.73;;
31514;SDS011;40526;52.088;17.020;2024-03-07T03:22:06;30.35;;;14.73;;
31514;SDS011;40526;52.088;17.020;2024-03-07T03:27:09;32.20;;;16.65;;
31514;SDS011;40526;52.088;17.020;2024-03-07T03:32:12;27.17;;;15.85;;
31514;SDS011;40526;52.088;17.020;2024-03-07T03:37:16;28.05;;;15.40;;
31514;SDS011;40526;52.088;17.020;2024-03-07T03:42:19;34.05;;;14.95;;
31514;SDS011;40526;52.088;17.020;2024-03-07T03:47:22;77.47;;;28.30;;
31514;SDS011;40526;52.088;17.020;2024-03-07T03:52:27;58.15;;;23.42;;
31514;SDS011;40526;52.088;17.020;2024-03-07T03:57:29;45.55;;;19.80;;
31514;SDS011;40526;52.088;17.020;2024-03-07T04:02:33;47.88;;;21.58;;
31514;SDS011;40526;52.088;17.020;2024-03-07T04:07:38;37.95;;;20.25;;
31514;SDS011;40526;52.088;17.020;2024-03-07T04:12:41;31.90;;;17.67;;
31514;SDS011;40526;52.088;17.020;2024-03-07T04:17:44;36.78;;;18.88;;
31514;SDS011;40526;52.088;17.020;2024-03-07T04:22:49;33.00;;;17.45;;
31514;SDS011;40526;52.088;17.020;2024-03-07T04:27:52;31.50;;;18.58;;
31514;SDS011;40526;52.088;17.020;2024-03-07T04:32:54;31.65;;;18.80;;
31514;SDS011;40526;52.088;17.020;2024-03-07T04:37:57;32.40;;;18.10;;
31514;SDS011;40526;52.088;17.020;2024-03-07T04:43:00;35.13;;;19.25;;
31514;SDS011;40526;52.088;17.020;2024-03-07T04:48:04;35.28;;;20.33;;
31514;SDS011;40526;52.088;17.020;2024-03-07T04:53:10;41.97;;;19.73;;
31514;SDS011;40526;52.088;17.020;2024-03-07T04:58:12;40.60;;;21.10;;
31514;SDS011;40526;52.088;17.020;2024-03-07T05:03:14;39.85;;;19.85;;
31514;SDS011;40526;52.088;17.020;2024-03-07T05:08:18;40.78;;;21.60;;
31514;SDS011;40526;52.088;17.020;2024-03-07T05:13:20;41.45;;;23.00;;
31514;SDS011;40526;52.088;17.020;2024-03-07T05:18:23;43.05;;;21.98;;
31514;SDS011;40526;52.088;17.020;2024-03-07T05:23:27;39.13;;;21.65;;
31514;SDS011;40526;52.088;17.020;2024-03-07T05:28:31;48.53;;;24.30;;
31514;SDS011;40526;52.088;17.020;2024-03-07T05:33:34;51.50;;;25.63;;
31514;SDS011;40526;52.088;17.020;2024-03-07T05:38:40;55.60;;;27.65;;
31514;SDS011;40526;52.088;17.020;2024-03-07T05:43:44;63.90;;;27.55;;
31514;SDS011;40526;52.088;17.020;2024-03-07T05:48:46;63.17;;;27.50;;
31514;SDS011;40526;52.088;17.020;2024-03-07T05:53:53;62.53;;;27.55;;
31514;SDS011;40526;52.088;17.020;2024-03-07T05:58:55;44.22;;;23.25;;
31514;SDS011;40526;52.088;17.020;2024-03-07T06:03:57;49.80;;;24.70;;
31514;SDS011;40526;52.088;17.020;2024-03-07T06:09:03;56.78;;;27.77;;
31514;SDS011;40526;52.088;17.020;2024-03-07T06:14:08;47.78;;;25.45;;
31514;SDS011;40526;52.088;17.020;2024-03-07T06:19:13;61.75;;;26.98;;
31514;SDS011;40526;52.088;17.020;2024-03-07T06:24:19;42.20;;;21.70;;
31514;SDS011;40526;52.088;17.020;2024-03-07T06:29:22;45.53;;;23.48;;
31514;SDS011;40526;52.088;17.020;2024-03-07T06:34:26;39.05;;;19.70;;
31514;SDS011;40526;52.088;17.020;2024-03-07T06:39:32;39.20;;;21.30;;
31514;SDS011;40526;52.088;17.020;2024-03-07T06:44:35;36.15;;;18.45;;
31514;SDS011;40526;52.088;17.020;2024-03-07T06:49:39;43.42;;;20.52;;
31514;SDS011;40526;52.088;17.020;2024-03-07T06:54:43;41.58;;;22.08;;
31514;SDS011;40526;52.088;17.020;2024-03-07T06:59:46;37.60;;;19.42;;
31514;SDS011;40526;52.088;17.020;2024-03-07T07:04:48;49.22;;;23.38;;
31514;SDS011;40526;52.088;17.020;2024-03-07T07:09:52;32.10;;;18.42;;
31514;SDS011;40526;52.088;17.020;2024-03-07T07:14:54;33.10;;;16.85;;
31514;SDS011;40526;52.088;17.020;2024-03-07T07:19:57;39.85;;;18.40;;
31514;SDS011;40526;52.088;17.020;2024-03-07T07:25:00;33.05;;;17.52;;
31514;SDS011;40526;52.088;17.020;2024-03-07T07:30:05;35.03;;;17.33;;
31514;SDS011;40526;52.088;17.020;2024-03-07T07:35:08;33.63;;;18.88;;
31514;SDS011;40526;52.088;17.020;2024-03-07T07:40:13;35.92;;;18.08;;
31514;SDS011;40526;52.088;17.020;2024-03-07T07:45:18;32.30;;;17.77;;
31514;SDS011;40526;52.088;17.020;2024-03-07T07:50:21;32.08;;;17.60;;
31514;SDS011;40526;52.088;17.020;2024-03-07T07:55:26;32.58;;;17.98;;
31514;SDS011;40526;52.088;17.020;2024-03-07T08:00:29;33.53;;;18.02;;
31514;SDS011;40526;52.088;17.020;2024-03-07T08:05:32;49.33;;;22.73;;
31514;SDS011;40526;52.088;17.020;2024-03-07T08:10:38;35.45;;;18.50;;
31514;SDS011;40526;52.088;17.020;2024-03-07T08:15:41;32.15;;;19.17;;
31514;SDS011;40526;52.088;17.020;2024-03-07T08:20:44;33.65;;;17.90;;
31514;SDS011;40526;52.088;17.020;2024-03-07T08:25:48;32.05;;;17.50;;
31514;SDS011;40526;52.088;17.020;2024-03-07T08:30:50;31.67;;;16.55;;
31514;SDS011;40526;52.088;17.020;2024-03-07T08:35:52;28.52;;;16.30;;
31514;SDS011;40526;52.088;17.020;2024-03-07T08:40:56;25.77;;;16.63;;
31514;SDS011;40526;52.088;17.020;2024-03-07T08:45:58;27.50;;;16.63;;
31514;SDS011;40526;52.088;17.020;2024-03-07T08:51:00;27.52;;;16.88;;
31514;SDS011;40526;52.088;17.020;2024-03-07T08:56:04;29.83;;;14.45;;
31514;SDS011;40526;52.088;17.020;2024-03-07T09:01:07;29.20;;;15.40;;
31514;SDS011;40526;52.088;17.020;2024-03-07T09:06:09;26.05;;;15.27;;
31514;SDS011;40526;52.088;17.020;2024-03-07T09:11:15;24.92;;;14.65;;
31514;SDS011;40526;52.088;17.020;2024-03-07T09:16:17;26.95;;;15.63;;
31514;SDS011;40526;52.088;17.020;2024-03-07T09:21:19;26.67;;;15.70;;
31514;SDS011;40526;52.088;17.020;2024-03-07T09:26:23;30.00;;;16.80;;
31514;SDS011;40526;52.088;17.020;2024-03-07T09:31:25;25.38;;;14.63;;
31514;SDS011;40526;52.088;17.020;2024-03-07T09:36:27;28.05;;;14.77;;
31514;SDS011;40526;52.088;17.020;2024-03-07T09:41:31;25.75;;;13.80;;
31514;SDS011;40526;52.088;17.020;2024-03-07T09:46:33;23.83;;;13.27;;
31514;SDS011;40526;52.088;17.020;2024-03-07T09:51:36;24.13;;;14.10;;
31514;SDS011;40526;52.088;17.020;2024-03-07T09:56:40;26.33;;;14.25;;
31514;SDS011;40526;52.088;17.020;2024-03-07T10:01:43;23.15;;;12.63;;
31514;SDS011;40526;52.088;17.020;2024-03-07T10:06:48;18.95;;;11.00;;
31514;SDS011;40526;52.088;17.020;2024-03-07T10:11:57;18.40;;;10.02;;
31514;SDS011;40526;52.088;17.020;2024-03-07T10:16:59;17.60;;;9.27;;
31514;SDS011;40526;52.088;17.020;2024-03-07T10:22:02;16.60;;;10.43;;
31514;SDS011;40526;52.088;17.020;2024-03-07T10:27:08;17.00;;;9.50;;
31514;SDS011;40526;52.088;17.020;2024-03-07T10:32:11;15.60;;;8.60;;
31514;SDS011;40526;52.088;17.020;2024-03-07T10:37:14;19.63;;;10.15;;
31514;SDS011;40526;52.088;17.020;2024-03-07T10:42:19;18.13;;;9.60;;
31514;SDS011;40526;52.088;17.020;2024-03-07T10:47:25;15.65;;;9.65;;
31514;SDS011;40526;52.088;17.020;2024-03-07T10:52:37;18.58;;;9.70;;
31514;SDS011;40526;52.088;17.020;2024-03-07T10:57:45;16.40;;;9.70;;
31514;SDS011;40526;52.088;17.020;2024-03-07T11:02:53;19.27;;;10.57;;
31514;SDS011;40526;52.088;17.020;2024-03-07T11:07:57;20.55;;;11.23;;
31514;SDS011;40526;52.088;17.020;2024-03-07T11:13:05;20.45;;;10.55;;
31514;SDS011;40526;52.088;17.020;2024-03-07T11:18:10;18.83;;;9.95;;
31514;SDS011;40526;52.088;17.020;2024-03-07T11:28:42;17.50;;;10.98;;
31514;SDS011;40526;52.088;17.020;2024-03-07T11:44:45;18.65;;;9.35;;
31514;SDS011;40526;52.088;17.020;2024-03-07T11:49:48;13.07;;;8.35;;
31514;SDS011;40526;52.088;17.020;2024-03-07T11:54:50;14.30;;;8.57;;
31514;SDS011;40526;52.088;17.020;2024-03-07T11:59:54;14.85;;;8.82;;
31514;SDS011;40526;52.088;17.020;2024-03-07T12:04:57;15.50;;;8.82;;
31514;SDS011;40526;52.088;17.020;2024-03-07T12:09:59;17.20;;;9.15;;
31514;SDS011;40526;52.088;17.020;2024-03-07T12:15:07;16.38;;;9.63;;
31514;SDS011;40526;52.088;17.020;2024-03-07T12:20:19;14.63;;;8.73;;
31514;SDS011;40526;52.088;17.020;2024-03-07T12:25:30;12.70;;;8.48;;
31514;SDS011;40526;52.088;17.020;2024-03-07T12:30:37;16.23;;;10.00;;
31514;SDS011;40526;52.088;17.020;2024-03-07T12:35:50;17.20;;;10.05;;
31514;SDS011;40526;52.088;17.020;2024-03-07T12:41:01;18.60;;;10.55;;
31514;SDS011;40526;52.088;17.020;2024-03-07T12:46:08;16.35;;;10.43;;
31514;SDS011;40526;52.088;17.020;2024-03-07T12:51:14;18.30;;;11.10;;
31514;SDS011;40526;52.088;17.020;2024-03-07T12:56:17;15.80;;;10.25;;
31514;SDS011;40526;52.088;17.020;2024-03-07T13:01:21;16.30;;;9.75;;
31514;SDS011;40526;52.088;17.020;2024-03-07T13:06:23;21.50;;;11.77;;
31514;SDS011;40526;52.088;17.020;2024-03-07T13:11:29;15.70;;;9.25;;
31514;SDS011;40526;52.088;17.020;2024-03-07T13:16:35;17.17;;;9.40;;
31514;SDS011;40526;52.088;17.020;2024-03-07T13:21:37;17.00;;;9.38;;
31514;SDS011;40526;52.088;17.020;2024-03-07T13:26:40;18.63;;;10.38;;
31514;SDS011;40526;52.088;17.020;2024-03-07T13:31:46;17.20;;;9.25;;
31514;SDS011;40526;52.088;17.020;2024-03-07T13:36:48;15.60;;;9.40;;
31514;SDS011;40526;52.088;17.020;2024-03-07T13:41:51;14.60;;;8.50;;
31514;SDS011;40526;52.088;17.020;2024-03-07T13:46:55;17.23;;;9.23;;
31514;SDS011;40526;52.088;17.020;2024-03-07T13:51:59;35.78;;;16.15;;
31514;SDS011;40526;52.088;17.020;2024-03-07T13:57:21;54.20;;;22.63;;
31514;SDS011;40526;52.088;17.020;2024-03-07T14:02:41;17.20;;;11.85;;
31514;SDS011;40526;52.088;17.020;2024-03-07T14:08:03;59.28;;;20.70;;
31514;SDS011;40526;52.088;17.020;2024-03-07T14:19:22;24.38;;;12.20;;
31514;SDS011;40526;52.088;17.020;2024-03-07T14:25:03;21.35;;;12.43;;
31514;SDS011;40526;52.088;17.020;2024-03-07T14:30:24;19.00;;;11.15;;
31514;SDS011;40526;52.088;17.020;2024-03-07T14:41:04;20.35;;;12.38;;
31514;SDS011;40526;52.088;17.020;2024-03-07T14:46:08;19.45;;;9.63;;
31514;SDS011;40526;52.088;17.020;2024-03-07T14:51:14;18.95;;;11.07;;
31514;SDS011;40526;52.088;17.020;2024-03-07T14:56:16;28.48;;;13.25;;
31514;SDS011;40526;52.088;17.020;2024-03-07T15:01:20;22.45;;;10.98;;
31514;SDS011;40526;52.088;17.020;2024-03-07T15:06:25;18.50;;;11.20;;
31514;SDS011;40526;52.088;17.020;2024-03-07T15:11:33;17.65;;;10.95;;
31514;SDS011;40526;52.088;17.020;2024-03-07T15:16:38;19.73;;;10.75;;
31514;SDS011;40526;52.088;17.020;2024-03-07T15:21:42;46.72;;;19.42;;
31514;SDS011;40526;52.088;17.020;2024-03-07T15:26:44;31.17;;;13.07;;
31514;SDS011;40526;52.088;17.020;2024-03-07T15:31:47;28.00;;;12.80;;
31514;SDS011;40526;52.088;17.020;2024-03-07T15:36:58;26.65;;;11.35;;
31514;SDS011;40526;52.088;17.020;2024-03-07T15:42:02;38.70;;;14.90;;
31514;SDS011;40526;52.088;17.020;2024-03-07T15:47:05;35.13;;;16.05;;
31514;SDS011;40526;52.088;17.020;2024-03-07T15:52:09;28.55;;;14.13;;
31514;SDS011;40526;52.088;17.020;2024-03-07T15:57:13;21.23;;;12.07;;
31514;SDS011;40526;52.088;17.020;2024-03-07T16:02:15;31.50;;;13.95;;
31514;SDS011;40526;52.088;17.020;2024-03-07T16:07:19;22.45;;;11.63;;
31514;SDS011;40526;52.088;17.020;2024-03-07T16:12:22;26.52;;;14.00;;
31514;SDS011;40526;52.088;17.020;2024-03-07T16:17:25;25.48;;;13.27;;
31514;SDS011;40526;52.088;17.020;2024-03-07T16:22:28;27.80;;;14.70;;
31514;SDS011;40526;52.088;17.020;2024-03-07T16:27:30;21.42;;;12.32;;
31514;SDS011;40526;52.088;17.020;2024-03-07T16:32:33;26.73;;;13.88;;
31514;SDS011;40526;52.088;17.020;2024-03-07T16:37:38;52.95;;;22.42;;
31514;SDS011;40526;52.088;17.020;2024-03-07T16:42:43;36.15;;;17.85;;
31514;SDS011;40526;52.088;17.020;2024-03-07T16:47:51;47.63;;;23.92;;
31514;SDS011;40526;52.088;17.020;2024-03-07T16:52:57;51.45;;;23.20;;
31514;SDS011;40526;52.088;17.020;2024-03-07T16:58:02;58.83;;;25.15;;
31514;SDS011;40526;52.088;17.020;2024-03-07T17:03:05;113.68;;;40.05;;
31514;SDS011;40526;52.088;17.020;2024-03-07T17:08:09;139.32;;;39.33;;
31514;SDS011;40526;52.088;17.020;2024-03-07T17:13:13;132.20;;;35.60;;
31514;SDS011;40526;52.088;17.020;2024-03-07T17:18:15;76.75;;;27.02;;
31514;SDS011;40526;52.088;17.020;2024-03-07T17:23:21;91.22;;;30.25;;
31514;SDS011;40526;52.088;17.020;2024-03-07T17:28:26;89.65;;;36.70;;
31514;SDS011;40526;52.088;17.020;2024-03-07T17:33:29;84.90;;;35.75;;
31514;SDS011;40526;52.088;17.020;2024-03-07T17:38:33;49.22;;;24.90;;
31514;SDS011;40526;52.088;17.020;2024-03-07T17:43:36;52.88;;;25.85;;
31514;SDS011;40526;52.088;17.020;2024-03-07T17:48:39;55.03;;;25.75;;
31514;SDS011;40526;52.088;17.020;2024-03-07T17:53:43;49.03;;;25.05;;
31514;SDS011;40526;52.088;17.020;2024-03-07T17:58:49;52.33;;;25.52;;
31514;SDS011;40526;52.088;17.020;2024-03-07T18:03:52;48.42;;;23.45;;
31514;SDS011;40526;52.088;17.020;2024-03-07T18:08:56;35.97;;;18.38;;
31514;SDS011;40526;52.088;17.020;2024-03-07T18:13:58;28.20;;;13.15;;
31514;SDS011;40526;52.088;17.020;2024-03-07T18:19:01;34.60;;;16.50;;
31514;SDS011;40526;52.088;17.020;2024-03-07T18:24:09;44.25;;;20.70;;
31514;SDS011;40526;52.088;17.020;2024-03-07T18:29:11;38.95;;;17.38;;
31514;SDS011;40526;52.088;17.020;2024-03-07T18:34:14;59.78;;;32.50;;
31514;SDS011;40526;52.088;17.020;2024-03-07T18:39:19;44.78;;;23.30;;
31514;SDS011;40526;52.088;17.020;2024-03-07T18:44:24;55.95;;;24.48;;
31514;SDS011;40526;52.088;17.020;2024-03-07T18:49:26;78.57;;;32.95;;
31514;SDS011;40526;52.088;17.020;2024-03-07T18:54:32;69.63;;;31.70;;
31514;SDS011;40526;52.088;17.020;2024-03-07T18:59:35;50.75;;;23.63;;
31514;SDS011;40526;52.088;17.020;2024-03-07T19:04:37;55.20;;;24.67;;
31514;SDS011;40526;52.088;17.020;2024-03-07T19:09:43;61.55;;;24.90;;
31514;SDS011;40526;52.088;17.020;2024-03-07T19:14:47;42.38;;;19.70;;
31514;SDS011;40526;52.088;17.020;2024-03-07T19:19:51;39.30;;;18.83;;
31514;SDS011;40526;52.088;17.020;2024-03-07T19:24:55;44.60;;;18.30;;
31514;SDS011;40526;52.088;17.020;2024-03-07T19:29:58;44.25;;;19.02;;
31514;SDS011;40526;52.088;17.020;2024-03-07T19:35:01;42.80;;;18.67;;
31514;SDS011;40526;52.088;17.020;2024-03-07T19:40:07;42.30;;;16.98;;
31514;SDS011;40526;52.088;17.020;2024-03-07T19:45:10;74.10;;;29.25;;
31514;SDS011;40526;52.088;17.020;2024-03-07T19:50:14;85.00;;;29.83;;
31514;SDS011;40526;52.088;17.020;2024-03-07T19:55:18;105.45;;;39.38;;
31514;SDS011;40526;52.088;17.020;2024-03-07T20:00:22;380.88;;;107.32;;
31514;SDS011;40526;52.088;17.020;2024-03-07T20:05:24;139.27;;;54.33;;
31514;SDS011;40526;52.088;17.020;2024-03-07T20:10:30;199.40;;;67.47;;
31514;SDS011;40526;52.088;17.020;2024-03-07T20:15:32;119.43;;;46.10;;
31514;SDS011;40526;52.088;17.020;2024-03-07T20:20:35;155.10;;;56.63;;
31514;SDS011;40526;52.088;17.020;2024-03-07T20:25:38;128.60;;;47.58;;
31514;SDS011;40526;52.088;17.020;2024-03-07T20:30:42;93.78;;;38.75;;
31514;SDS011;40526;52.088;17.020;2024-03-07T20:35:45;98.45;;;40.50;;
31514;SDS011;40526;52.088;17.020;2024-03-07T20:40:50;86.40;;;38.08;;
31514;SDS011;40526;52.088;17.020;2024-03-07T20:45:53;86.50;;;38.25;;
31514;SDS011;40526;52.088;17.020;2024-03-07T20:50:56;91.32;;;38.78;;
31514;SDS011;40526;52.088;17.020;2024-03-07T20:56:00;72.75;;;31.98;;
31514;SDS011;40526;52.088;17.020;2024-03-07T21:01:02;73.40;;;31.38;;
31514;SDS011;40526;52.088;17.020;2024-03-07T21:06:08;64.35;;;28.00;;
31514;SDS011;40526;52.088;17.020;2024-03-07T21:11:15;59.00;;;26.02;;
31514;SDS011;40526;52.088;17.020;2024-03-07T21:16:28;58.58;;;27.70;;
31514;SDS011;40526;52.088;17.020;2024-03-07T21:21:30;56.20;;;25.58;;
31514;SDS011;40526;52.088;17.020;2024-03-07T21:26:35;48.10;;;22.98;;
31514;SDS011;40526;52.088;17.020;2024-03-07T21:31:38;56.45;;;22.77;;
31514;SDS011;40526;52.088;17.020;2024-03-07T21:36:42;54.53;;;23.35;;
31514;SDS011;40526;52.088;17.020;2024-03-07T21:41:46;50.17;;;22.17;;
31514;SDS011;40526;52.088;17.020;2024-03-07T21:46:48;49.42;;;21.23;;
31514;SDS011;40526;52.088;17.020;2024-03-07T21:57:05;46.58;;;25.00;;
31514;SDS011;40526;52.088;17.020;2024-03-07T22:02:07;66.20;;;27.58;;
31514;SDS011;40526;52.088;17.020;2024-03-07T22:07:15;64.03;;;29.48;;
31514;SDS011;40526;52.088;17.020;2024-03-07T22:12:20;64.22;;;30.30;;
31514;SDS011;40526;52.088;17.020;2024-03-07T22:17:23;54.75;;;28.17;;
31514;SDS011;40526;52.088;17.020;2024-03-07T22:22:26;51.33;;;24.20;;
31514;SDS011;40526;52.088;17.020;2024-03-07T22:27:31;55.63;;;25.70;;
31514;SDS011;40526;52.088;17.020;2024-03-07T22:32:33;55.15;;;27.30;;
31514;SDS011;40526;52.088;17.020;2024-03-07T22:37:36;58.60;;;27.48;;
31514;SDS011;40526;52.088;17.020;2024-03-07T22:42:41;76.63;;;29.70;;
31514;SDS011;40526;52.088;17.020;2024-03-07T22:47:45;60.53;;;28.13;;
31514;SDS011;40526;52.088;17.020;2024-03-07T22:52:50;55.13;;;27.40;;
31514;SDS011;40526;52.088;17.020;2024-03-07T22:57:54;73.50;;;33.53;;
31514;SDS011;40526;52.088;17.020;2024-03-07T23:02:56;71.22;;;30.67;;
31514;SDS011;40526;52.088;17.020;2024-03-07T23:07:59;74.85;;;30.58;;
31514;SDS011;40526;52.088;17.020;2024-03-07T23:13:03;68.63;;;30.40;;
31514;SDS011;40526;52.088;17.020;2024-03-07T23:18:05;71.57;;;29.95;;
31514;SDS011;40526;52.088;17.020;2024-03-07T23:23:11;72.57;;;31.98;;
31514;SDS011;40526;52.088;17.020;2024-03-07T23:28:14;74.00;;;31.33;;
31514;SDS011;40526;52.088;17.020;2024-03-07T23:33:19;64.18;;;28.83;;
31514;SDS011;40526;52.088;17.020;2024-03-07T23:38:21;66.43;;;29.13;;
31514;SDS011;40526;52.088;17.020;2024-03-07T23:43:26;78.03;;;32.55;;
31514;SDS011;40526;52.088;17.020;2024-03-07T23:48:28;64.22;;;30.80;;
31514;SDS011;40526;52.088;17.020;2024-03-07T23:53:32;76.43;;;32.17;;
31514;SDS011;40526;52.088;17.020;2024-03-07T23:58:36;67.57;;;32.22;;
